Biedriem

VSK Noskrien twitter
VSK Noskrien Facebook profils

Polar M400 HR
Ūdensizturīgs GPS pulsometrs ikdienas treniņiem un sportiskiem sasniegumiem.
EUR 189.00

Noskrietais


Visi skrējieni šim skrējējam
Datums Notikums Skrējējs Km Laiks Pulss min/km km/h Apavi
12/11/17 Rīta rosme. Ļoti interesantas dienas sākums. Didzo 5.40 32:12 05:57 10.06 ir
09/11/17 Ar Billi. Sākām gaismā, atgriezāmies tumsā. Didzo 8.05 53:08 06:36 9.09 ir
13.45
04/11/17 Sen atpakaļ. Didzo 6.07 38:37 06:21 9.43 ir
6.07
29/10/17 Kopā jautrāk. Kopā vieglāk. Didzo 43.07 4:24:11 06:08 9.78 ir
28/10/17 Bulduri - Imanta. Didzo 11.13 1:04:44 05:48 10.32 ir
28/10/17 Līdz Babītei. Didzo 12.60 1:13:30 05:50 10.29 ir
27/10/17 Lēnām uz mājām. Didzo 2.58 16:02 06:12 9.65 ir
27/10/17 Sarkanās gaismas neeksistē. Didzo 7.31 38:14 05:13 11.47 ir
26/10/17 Uz darbu, pie bērniem. #62(Lāčplēša iela - Bolderāja) Didzo 15.14 1:32:15 06:05 9.85 ir
24/10/17 Uz darbu, pie bērniem. #61(Lāčplēša iela - Bolderāja) Didzo 15.06 1:31:20 06:03 9.89 ir
106.89
22/10/17 Winter is coming. Didzo 10.65 1:09:16 06:30 9.23 ir
21/10/17 Pēc darba ar astīti. Didzo 10.34 57:48 05:35 10.73 ir
21/10/17 Jau atkal darbs. Didzo 8.74 53:01 06:03 9.89 ir
19/10/17 Starp darbiem ar Billi. Didzo 5.53 36:11 06:32 9.17 ir
19/10/17 Uz darbu, pie bērniem. #60(Lāčplēša iela - Bolderāja) Didzo 15.02 1:29:38 05:58 10.05 ir
17/10/17 Uz darbu, pie bērniem. #59 (Lāčplēša iela - Bolderāja) Didzo 15.02 1:30:25 06:01 9.97 ir
65.30
15/10/17 Lēnais ar Billi. Lai nekas nesāp. Didzo 8.80 1:00:00 06:49 8.80 ir
14/10/17 Līdz Imantai. Pa šoseju skriet negribēju. Didzo 13.23 1:17:34 05:51 10.23 ir
14/10/17 Lāčplēša iela - Jūrmala. Didzo 22.06 2:09:57 05:53 10.19 ir
10/10/17 Pirms darba skrējiens. Didzo 10.81 59:40 05:31 10.87 ir
54.90
08/10/17 Pienākums sauca. Didzo 8.65 48:03 05:33 10.80 ir
8.65
30/09/17 Vairs nepārdzīvoju. Sāku pierast. Didzo 55.26 8:14:19 08:56 6.71 ir
26/09/17 Uz darbu, pie bērniem. #58 (Lāčplēša iela - Bolderāja) Didzo 15.02 1:28:40 05:54 10.16 ir
70.28
24/09/17 Takas un jūra. Didzo 11.14 1:09:41 06:15 9.59 ir
23/09/17 Bille neko negrib un "Privet trenjer!". Didzo 4.71 30:25 06:27 9.29 ir
21/09/17 Pastaigas vietā. Ar Billi. Didzo 8.28 53:01 06:24 9.37 ir
21/09/17 Viss man vienam. Līdz Podragam. Didzo 7.89 44:19 05:37 10.68 ir
19/09/17 Vakara pastaiga ar Billi. Kājas stīvas un cietas.  Didzo 6.98 48:49 06:59 8.58 ir
39.00
17/09/17 Iesildīšanās Valmierā. Didzo 2.52 15:09 06:00 9.98 ir
17/09/17 Valmieras maratons Didzo 42.20 3:26:26 04:53 12.26 ir
16/09/17 Billes pirmie 5 km. Rīts pie jūras. Didzo 5.19 32:47 06:18 9.50 ir
14/09/17 Taupot sevi. Lietus un vējš. Didzo 9.07 51:48 05:42 10.51 ir
12/09/17 Uz darbu, pie bērniem. #57 (Lāčplēša iela - Bolderāja) Didzo 15.06 1:28:58 05:54 10.16 ir
74.04
09/09/17 Uz transportu ar divām somām. Didzo 0.93 05:42 06:07 9.79 ir
09/09/17 Ekskursija uz Pļavniekiem. Didzo 13.37 1:12:22 05:24 11.09 ir
07/09/17 Uz darbu, pie bērniem. #56 (Lāčplēša iela - Bolderāja) Didzo 15.05 1:23:48 05:34 10.78 ir
05/09/17 Uz darbu, pie bērniem. #55 (Lāčpleša iela - Bolderāja) Didzo 14.96 1:26:41 05:47 10.35 ir
44.31
03/09/17 Līdz molam. Ar šķēršļu joslas elementiem. Didzo 10.00 1:02:29 06:14 9.60 ir
01/09/17 Nemaz nebija tik silkti. Pirmais septembris. Didzo 8.60 47:23 05:30 10.89 ir
31/08/17 Augusta pēdējais. Didzo 10.04 1:03:51 06:21 9.43 ir
30/08/17 Skaists saullēkts. Didzo 7.90 47:26 06:00 9.99 ir
36.54
26/08/17 BBPU. Retu reizi varu justies lepns par sevi. Didzo 52.69 4:29:31 05:06 11.73 ir
23/08/17 Agrs jo agrs rīts. Didzo 7.23 42:53 05:55 10.12 ir
22/08/17 Skaists vakars pie jūras. Didzo 10.02 1:00:11 06:00 9.99 ir
22/08/17 Billes pirmie 2 km. Didzo 2.02 13:15 06:33 9.15 ir
22/08/17 Uz darbu, pie bērniem. #54 (Lietusgāzes) Didzo 2.47 12:52 05:12 11.52 ir
74.43
19/08/17 Līdz ietekai. Didzo 14.28 1:27:21 06:07 9.81 ir
17/08/17 Grīziņkalns. #3  Didzo 15.34 1:30:30 05:53 10.17 ir
16/08/17 Ar smagām kājām pēc kārtīga tupiena. No darba uz darbu. Didzo 3.69 21:11 05:44 10.45 ir
15/08/17 Vakara intervāli. Didzo 8.19 46:21 05:39 10.60 ir
15/08/17 Transportēšanās. Jūra un šoseja. Didzo 7.02 38:36 05:29 10.91 ir
15/08/17 Uz darbu, pie bērniem. #53 (Pašsavaldības kontrole) Didzo 2.39 13:33 05:40 10.58 ir
15/08/17 Cauri miglas plīvuram. Smilšpapīrs. Didzo 8.22 54:36 06:38 9.03 ir
14/08/17 Ātrais transports. Didzo 3.16 20:37 06:31 9.20 ir
62.29
12/08/17 No negaisa izbēgu. Didzo 10.80 1:12:33 06:43 8.93 ir
11/08/17 Basais gar jūru. Laiks pierast pie svelmes un smilšpapīra. Didzo 14.20 1:20:10 05:38 10.63 ir
09/08/17 Grīziņkalns. #2 Intervāli, 400x6. Didzo 13.93 1:22:48 05:56 10.09 ir
08/08/17 Es vēl atgriezīšos. Didzo 6.76 40:33 05:59 10.00 ir
45.69
04/08/17 CET. DNF. Savainojums un apmaldīšanās. Didzo 42.94 5:47:19 08:05 7.42 ir
03/08/17 Mājup pēc peldes. Didzo 2.11 13:42 06:29 9.24 ir
02/08/17 Dabas likumi. Līdz jūrai. Didzo 2.02 12:04 05:58 10.04 ir
01/08/17 Silts vasaras lietus. Didzo 7.59 48:36 06:24 9.37 ir
31/07/17 Sprinti Grīziņkalnā x 10.#1 Didzo 5.69 44:00 07:43 7.76 ir
31/07/17 Uzreiz pēc peldes. Didzo 2.00 12:54 06:27 9.30 ir
31/07/17 Atvaļinājums noslēdzies. Didzo 8.73 57:05 06:32 9.18 ir
71.08
28/07/17 Atpūtas nedēļa. Didzo 7.26 48:59 06:44 8.89 ir
7.26
22/07/17 Jelgavas nakts pusmaratons. Didzo 21.10 1:35:02 04:30 13.32 ir
22/07/17 Iesildīšanās Jelgavā. Didzo 2.51 17:17 06:53 8.71 ir
20/07/17 Un vēlreiz lēnām. Didzo 9.27 53:15 05:44 10.45 ir
18/07/17 Lēni, mierīgi, nesteidzīgi. Didzo 8.68 58:46 06:46 8.86 ir
41.56
15/07/17 Es esmu Vilkatis Didzo 42.90 6:53:28 09:38 6.23 ir
14/07/17 Transportējos Didzo 1.17 07:27 06:22 9.42 ir
12/07/17 Darbs - veikals - mājas. Didzo 3.32 22:31 06:46 8.85 ir
12/07/17 Atjaunojos - apmaldos Didzo 6.60 43:01 06:31 9.21 ir
11/07/17 Intervāli stadionā. Ļoti smagi skrējās. Didzo 9.77 55:32 05:41 10.56 ir
10/07/17 Līdz Botāniskajam dārzam. Didzo 14.23 1:29:43 06:18 9.52 ir
10/07/17 Uz darbu Jūrmalā. Jūtos labi. Didzo 20.00 1:48:53 05:26 11.02 ir
97.99
08/07/17 Iepazīstot rajonu. Didzo 9.40 57:12 06:05 9.86 ir
06/07/17 Atslidos. Didzo 1.59 10:53 06:50 8.77 ir
06/07/17 Izskrien Rīgu, Grīziņkalns. Ar rezervi. Didzo 8.98 45:01 05:00 11.97 ir
06/07/17 Iesildīšanās Grīziņkalnā. Didzo 2.01 14:43 07:19 8.19 ir
04/07/17 Cauri lietus gāzēm. Didzo 5.99 38:02 06:20 9.45 ir
04/07/17 1km/400m/ Didzo 12.27 1:11:40 05:50 10.27 ir
03/07/17 Atjaunojos gar jūru. Didzo 14.34 1:35:25 06:39 9.02 ir
54.58
01/07/17 Lūsis Didzo 36.50 4:26:59 07:18 8.20 ir
29/06/17 Vakara lēnā pastaiga. Didzo 8.30 47:03 05:40 10.58 ir
29/06/17 Uz darbu, pie bērniem. #52 (Atpūta nopelnīta) Didzo 2.38 14:12 05:57 10.06 ir
28/06/17 Super rīts. Visskaistākās vietas. Didzo 14.67 1:20:21 05:28 10.95 ir
27/06/17 Uz darbu, pie bērniem. #51 Didzo 2.36 13:38 05:46 10.39 ir
26/06/17 Piepūties. Nav labi tā darīt. Didzo 8.33 53:01 06:21 9.43 ir
72.54
22/06/17 Uz darbu, pie bērniem. #50 Didzo 2.38 13:22 05:36 10.68 ir
20/06/17 Uz darbu, pie bērniem. #49 Didzo 2.34 14:07 06:01 9.95 ir
4.72
18/06/17 Ventspils. Mans 10. maratons. Didzo 42.20 3:31:50 05:01 11.95 ir
18/06/17 Iesildīšanās Ventspilī. Didzo 1.31 08:15 06:17 9.53 ir
17/06/17 Rīta rosme, parliecības gūšanai. Didzo 8.89 45:32 05:07 11.71 ir
15/06/17 Uz darbu, pie bērniem. #48 Didzo 2.38 13:44 05:46 10.40 ir
14/06/17 Jau atkal ar karatistiem. Didzo 4.78 30:43 06:25 9.34 ir
13/06/17 Izpalīdzēt. Didzo 6.00 33:13 05:32 10.84 ir
13/06/17 Uz darbu, pie bērniem. #47 Didzo 2.37 13:13 05:34 10.76 ir
12/06/17 Vislabākas domas galvā rodas skrienot. Kā lai viņas atcerās un notur? Didzo 20.31 1:57:54 05:48 10.34 ir
88.24
11/06/17 Atjaunoties. Dzīvot. Cīnīties. Mīlēt. Didzo 6.46 39:48 06:09 9.74 ir
09/06/17 Apsteigt visus. Didzo 6.08 30:56 05:05 11.79 ir
09/06/17 Ar mazajiem karatistiem. Didzo 4.37 25:52 05:55 10.14 ir
08/06/17 Pēc darba. Takas un smiltis. Didzo 8.32 48:57 05:53 10.20 ir
08/06/17 Uz darbu, pie bērniem. #46 Didzo 6.70 41:40 06:13 9.65 ir
31.93
04/06/17 Āķis lūpā... Didzo 8.01 45:38 05:41 10.53 ir
03/06/17 Sajust katru akmentiņu, katru smilšu graudu. Didzo 5.19 29:36 05:42 10.52 ir
13.20
21/05/17 Ultrabalaton - šoreiz nācās izstāties. Didzo 148.20 17:34:58 07:07 8.43 ir
18/05/17 Budapešta. Uz mājām. Didzo 4.79 29:23 06:08 9.78 ir
18/05/17 Budapešta. Pēc starta numura. Didzo 5.32 34:51 06:33 9.16 ir
16/05/17 Uz darbu, pie bērniem. #45 Didzo 2.15 13:31 06:17 9.54 ir
160.46
14/05/17 LRM 2017. Ar skolēniem. Didzo 6.00 51:49 08:38 6.95 ir
14/05/17 LRM 2017. Treniņš kaujas apstākļos. Mans 9ais maratons. Didzo 42.20 3:48:20 05:24 11.09 ir
12/05/17 No maratona expo. Didzo 5.43 30:31 05:37 10.68 ir
11/05/17 Uz darbu, pie bērniem. #44 Didzo 2.36 12:49 05:25 11.05 ir
10/05/17 Jau atkal. Didzo 10.20 54:44 05:21 11.18 ir
09/05/17 Uz darbu, pie bērniem. #43 Didzo 2.24 13:04 05:49 10.29 ir
08/05/17 Tad tomēr. Didzo 4.98 24:45 04:58 12.07
73.41
07/05/17 Centos viegli. Didzo 7.37 40:23 05:28 10.95 ir
06/05/17 Darbs - darbs. Didzo 9.22 56:35 06:08 9.78 ir
06/05/17 Uz darbu. Didzo 24.00 2:18:26 05:46 10.40 ir
05/05/17 Starp hokeja spēlēm. Didzo 9.91 55:54 05:38 10.64 ir
05/05/17 Pirms stieņiem. Didzo 5.01 29:37 05:54 10.15 ir
04/05/17 Ar pilnu vēderu. Didzo 10.49 1:03:21 06:02 9.94 ir
04/05/17 Pie jūras. Didzo 11.08 1:07:55 06:07 9.79 ir
03/05/17 Pēc darba uz rajonu. Didzo 15.02 1:29:43 05:58 10.04 ir
03/05/17 Līdz Lielupes ietekai un atpakaļ. Didzo 15.37 1:36:52 06:18 9.52 ir
02/05/17 Daugavgrīvas stadions. 2+5x1200/800+2 Didzo 13.01 1:12:28 05:34 10.77 ir
02/05/17 Uz darbu, pie bērniem. #42 Didzo 2.31 13:22 05:47 10.37 ir
01/05/17 Neplānotais. Didzo 2.78 17:56 06:27 9.30 ir
125.57
30/04/17 #Izturēt 4. Noslēgums. 22:38 Didzo 9.05 1:06:49 07:22 8.13 ir
30/04/17 #Izturēt 3. Vakars.17:44 Didzo 17.30 1:46:11 06:08 9.78 ir
30/04/17 #Izturēt 2. Diena.13:10 Didzo 16.14 1:30:08 05:35 10.74 ir
30/04/17 #Izturēt 1. Rīts. 8:28 Didzo 14.30 1:36:05 06:43 8.93 ir
29/04/17 Mierīgs vakars pie jūras. Didzo 10.07 1:10:31 07:00 8.57 ir
29/04/17 Daugavgrīvas stadions. 2+/1200/800/+3 Didzo 21.00 1:54:57 05:28 10.96 ir
27/04/17 Džudo skola - mājas. Didzo 16.05 1:41:47 06:20 9.46 ir
27/04/17 Uz darbu, pie bērniem. #41 Didzo 13.89 1:30:24 06:30 9.22 ir
26/04/17 Pēc darba. Apsteidzot sastrēgumus. Didzo 6.58 38:44 05:53 10.19 ir
25/04/17 Mājās no darba. Izmirku pamatīgi. Didzo 16.38 1:41:16 06:10 9.71 ir
25/04/17 Uz darbu, pie bērniem. #40 Didzo 9.39 57:15 06:05 9.84 ir
150.15
22/04/17 Ir bijis labāk. Didzo 13.58 1:21:38 06:00 9.98 ir
21/04/17 Cik lēni vien var. Ceļš mājup. Didzo 10.46 1:09:15 06:37 9.06 ir
21/04/17 Vai tā bija laba doma? Didzo 9.94 51:40 05:11 11.54 ir
20/04/17 Vēl vienu pieturu tālāk. Didzo 12.17 1:15:08 06:10 9.72 ir
20/04/17 Uz darbu, pie bērniem. #39 Didzo 12.64 1:18:56 06:14 9.61 ir
18/04/17 Vakars pēc darba. Didzo 7.05 44:37 06:19 9.48 ir
18/04/17 Uz darbu, pie bērniem. #38 Didzo 14.46 1:35:00 06:34 9.13 ir
17/04/17 Ieildīšanās - intervāli - c vitamīns un gaļa. Didzo 15.06 1:25:27 05:40 10.57 ir
95.36
16/04/17 Atpūšoties. Didzo 12.90 1:24:51 06:34 9.12 ir
15/04/17 No mājām - uz mājām. Didzo 16.12 1:33:10 05:46 10.38 ir
13/04/17 Uz darbu, pie bērniem. #37 (Avotu iela - Bolderāja) Didzo 14.58 1:26:26 05:55 10.12 ir
12/04/17 Centrs. Izmēģinu jaunās. Didzo 5.82 33:39 05:46 10.38 ir
11/04/17 Pēc darba, uz veikalu. Didzo 2.94 16:50 05:43 10.48 ir
11/04/17 Uz darbu, pie bērniem. #36 (Avotu iela - Bolderāja) Nākamreiz, lūdzu, prātīgāk. Didzo 14.38 1:21:16 05:39 10.62 ir
66.74
09/04/17 Nedaudz apkārt rajonam. Solījums izpildīts. Didzo 11.09 1:06:50 06:01 9.96 ir
08/04/17 Avotu iela - Dzinatri. Uz darbu. Varu atkal skriet. Didzo 22.01 2:15:41 06:09 9.73 ir
33.10
01/04/17 Rīga - Valmiera. Didzo 107.00 11:20:08 06:21 9.44 ir
30/03/17 Uz darbu, pie bērniem. #35 Didzo 2.38 12:40 05:19 11.27 ir
28/03/17 Uz darbu, pie bērniem. #34 (Avotu iela - Bolderāja) Didzo 14.61 1:24:10 05:45 10.42 ir
123.99
26/03/17 Atjaunojos. Ronīti neaiztikām. Didzo 12.01 1:16:35 06:22 9.41 ir
23/03/17 Mana mīļākā vieta. Didzo 8.86 50:53 05:44 10.45 ir
23/03/17 Uz darbu, pie bērniem. #33 Didzo 2.46 12:36 05:07 11.71 ir
21/03/17 Uz darbu, pie bērniem. #32 (Avotu iela - Bolderāja) Didzo 14.53 1:26:30 05:57 10.08 ir
37.86
18/03/17 Avotu iela - Jūrmala. Bet ne atpakaļ. Šoreiz uz darbu. Didzo 22.21 2:10:00 05:51 10.25 ir
17/03/17 Līdz Babītei. Centos atjaunoties. Didzo 19.03 2:02:13 06:25 9.34 ir
16/03/17 Pie bērniem. Nācās pasteigties. Didzo 20.87 1:59:11 05:42 10.51 ir
15/03/17 Avotu iela - Babīte - Dzirnavu iela. Didzo 23.07 2:08:37 05:34 10.76 ir
14/03/17 Uz darbu, pie bērniem. #31 (Avotu iela - Bolderāja) Didzo 14.68 1:29:24 06:05 9.85 ir
13/03/17 Bolderāja - Dzirnavu iela. Izgulējies. Didzo 15.62 1:34:07 06:01 9.96 ir
115.48
12/03/17 Līdz veikalam un kūciņas. Didzo 4.47 23:54 05:20 11.22 ir
12/03/17 Līdz Iļģuciemam. Didzo 7.24 43:43 06:02 9.94 ir
11/03/17 Avotu iela - Pagrieziens uz Garkalni - Jugla Didzo 34.26 3:55:40 06:52 8.72 ir
10/03/17 Avotu iela - Jūrmala. Didzo 42.21 4:35:32 06:31 9.19 ir
09/03/17 Uz darbu, pie bērniem. #30 (Avotu iela - Bolderāja) Didzo 14.38 1:29:50 06:14 9.60 ir
08/03/17 Kronvalda parks. #21 Didzo 7.20 48:59 06:48 8.82 ir
07/03/17 Uz darbu, pie bērniem. #29 (Avotu iela - Bolderāja) Didzo 14.67 1:32:20 06:17 9.53 ir
124.43
05/03/17 Vakars Didzo 24.15 2:13:45 05:32 10.83 ir
04/03/17 Daudz laimes!!! Didzo 26.02 2:42:00 06:13 9.64 ir
03/03/17 Atkal jāpasteidzās. Didzo 4.69 26:35 05:40 10.59 ir
02/03/17 Uz darbu, pie bērniem. #28 (Avotu iela - Bolderāja) Didzo 14.84 1:24:31 05:41 10.54 ir
28/02/17 Uz darbu, pie bērniem. #27 (Avotu iela - Bolderāja) Didzo 14.41 1:25:43 05:56 10.09 ir
84.11
23/02/17 Līdz alfai. Didzo 14.40 1:20:57 05:37 10.67 ir
22/02/17 Kronvalda parks. #20 Didzo 3.86 23:07 05:59 10.02 ir
21/02/17 Centos ieklausīties. Didzo 12.13 1:15:29 06:13 9.64 ir
21/02/17 Uz darbu, pie bērniem. #26 Didzo 2.15 09:08 04:14 14.12 ir
32.54
19/02/17 Līdz bākai. Didzo 7.91 57:17 07:14 8.29 ir
18/02/17 Avotu iela - Dzinatri. Uz darbu. Didzo 22.01 2:10:35 05:55 10.11 ir
17/02/17 No Dzirnavu ielas uz mājām. Didzo 15.61 1:38:46 06:19 9.48 ir
16/02/17 Lēnais starp darbiem. Varēju mazāk, gribēju vairāk. Didzo 14.06 1:30:25 06:25 9.33 ir
16/02/17 Uz darbu, pie bērniem. #25 (Avotu iela - podraga iela) Didzo 7.76 38:45 04:59 12.02 ir
15/02/17 Kronvalda parks. #19 Didzo 8.66 59:35 06:52 8.72 ir
14/02/17 Atvadas. Paldies Tev par visu... Didzo 15.31 1:32:52 06:03 9.89 ir
14/02/17 Uz darbu, pie bērniem. #24 Didzo 2.12 08:58 04:13 14.19 ir
93.44
11/02/17 Es darīju ko varēju. Didzo 25.13 2:37:00 06:14 9.60 ir
10/02/17 Ar Balto vilku. Gar jūru, kur jūtamies vislabāk. Didzo 7.69 54:45 07:07 8.43 ir
09/02/17 Ūdenskrātuves. Didzo 17.01 1:45:44 06:12 9.65 ir
09/02/17 Uz darbu, pie bērniem. #23 Didzo 2.41 12:21 05:07 11.71 ir
07/02/17 Skaistā Latvijas daba. Didzo 21.15 2:06:48 05:59 10.01 ir
07/02/17 Uz darbu, pie bērniem. #22 Didzo 2.41 13:06 05:26 11.04 ir
75.80
05/02/17 Saudzīgi. Jūra un mežs. Didzo 22.00 2:28:41 06:45 8.88 ir
31/01/17 Vai tā ir pareizi? Didzo 9.01 51:14 05:41 10.55 ir
31/01/17 Uz darbu, pie bērniem. #21 Didzo 2.38 13:20 05:36 10.71 ir
33.39
25/01/17 Kronvalda parks. #18 Didzo 7.12 46:30 06:31 9.19 ir
25/01/17 Bez prāta, tikai uz emocijām. Ķermenis pieprasa atpūtu. Didzo 11.01 1:07:48 06:09 9.74 ir
24/01/17 Ar vien biežāk un biežāk. Didzo 6.69 34:44 05:11 11.56 ir
24/01/17 Pirmais, īstais.. Didzo 9.02 48:15 05:20 11.22 ir
24/01/17 Uz darbu, pie bērniem. #20 Didzo 2.19 11:15 05:08 11.68 ir
36.03
22/01/17 Lēnām gar jūru. Didzo 14.29 1:25:30 05:58 10.03 ir
21/01/17 Dzintari - Imanta Didzo 18.04 1:34:25 05:14 11.46 ir
19/01/17 Uz darbu, pie bērniem. #19 Didzo 2.18 12:08 05:33 10.78 ir
18/01/17 Kronvalda parks. #17 Didzo 8.67 59:18 06:50 8.77 ir
17/01/17 Pirms picērijas. Didzo 6.94 37:04 05:20 11.23 ir
17/01/17 Domas, kuras vada uz priekšu. Didzo 14.50 1:18:30 05:24 11.08 ir
17/01/17 Uz darbu, pie bērniem. #18 Didzo 2.41 13:01 05:24 11.11 ir
16/01/17 4:04 - visa iela pieder man. Didzo 7.28 41:30 05:42 10.53 ir
74.31
15/01/17 4:48. Pirms filmēšanas. Didzo 21.02 2:06:43 06:01 9.95 ir
13/01/17 Pirms pieciem un pirms filmēšanas. Didzo 8.17 50:13 06:08 9.76 ir
12/01/17 Jau atkal ar pozitīvām domām. Didzo 6.92 38:00 05:29 10.93 ir
12/01/17 Uz darbu, pie bērniem. #17 Didzo 2.16 11:12 05:11 11.57 ir
12/01/17 Vējš, sniegs un kalniņi. Didzo 8.20 46:35 05:40 10.56 ir
11/01/17 Kronvalda parks. #16 Didzo 6.38 39:51 06:14 9.61 ir
10/01/17 Ar pozitīvām emocijām. Didzo 6.53 33:38 05:09 11.65 ir
10/01/17 Gar jūru, pa ledu. Didzo 11.57 1:02:20 05:23 11.14 ir
10/01/17 Uz darbu, pie bērniem. #16 Didzo 2.40 13:10 05:29 10.94 ir
73.35
07/01/17 Tā nu es dzīvoju... Didzo 8.18 49:47 06:05 9.86 ir
07/01/17 Aukstums pie jūras. Kāpinošā tempā. Didzo 8.07 42:29 05:15 11.40 ir
06/01/17 Telefons neizturēja aukstumu. Didzo 5.58 31:14 05:35 10.72 ir
06/01/17 Vējš nes uz priekšu. Jūra un šoseja. Ļoti skaisti skati. Didzo 16.80 1:31:03 05:25 11.07 ir
05/01/17 Auksti, bet cik skaisti. Didzo 7.22 41:42 05:46 10.39 ir
05/01/17 Uz darbu, pie bērniem. #15 Didzo 2.20 10:46 04:53 12.26 ir
04/01/17 Kronvalda parks. #15 Didzo 7.00 48:01 06:51 8.75 ir
03/01/17 Ceļš uz māju pusi. Jau ar jauniem spēkiem. Didzo 5.41 30:33 05:38 10.63 ir
03/01/17 Līdz spēku izsīkumam. Nācās ieskriet pitstopā. Didzo 14.85 1:31:23 06:09 9.75 ir
03/01/17 Sniegs un pretvējš. Un negaidītais ziņojums. Didzo 8.07 45:50 05:40 10.56 ir
03/01/17 Uz darbu, pie bērniem. #14 Didzo 2.42 13:20 05:30 10.89 ir
02/01/17 Pilns ar pozitīvām domām. Didzo 8.12 42:47 05:16 11.39 ir
93.92
01/01/17 Mani draugi ir ar mani. Didzo 2.25 11:30 05:06 11.74 ir
01/01/17 Kā man ir paveicies! Didzo 15.51 1:20:54 05:12 11.50 ir
30/12/16 No viena pasākuma uz otru. Didzo 3.03 17:35 05:48 10.34 ir
30/12/16 Pēc dāvanas mammai. Didzo 5.07 26:20 05:11 11.55 ir
30/12/16 Bolderāja - Dzirnavu iela. Didzo 15.40 1:24:09 05:27 10.98 ir
27/12/16 Nenoturējos, jo beidzot parādījies sniegs. Didzo 9.03 49:26 05:28 10.96 ir
27/12/16 Uz darbu, pie bērniem. #13 Didzo 2.19 12:17 05:36 10.70 ir
26/12/16 Ar slapjām kājām. Didzo 8.13 54:21 06:41 8.98 ir
26/12/16 Neveiksmīgs mēģinājums tikt līdz molam. Didzo 13.79 1:17:24 05:36 10.69 ir
74.40
25/12/16 Pagrieziena punkts. Didzo 21.09 2:05:53 05:58 10.05 ir
23/12/16 Pustumsā. Didzo 7.02 40:05 05:42 10.51 ir
22/12/16 Pēc našķiem, pa tumsu un dubļiem. Didzo 9.70 1:00:28 06:14 9.63 ir
22/12/16 Varu redzēt, varu domāt. Didzo 8.24 43:53 05:19 11.27 ir
22/12/16 Uz darbu, pie bērniem. #12 Didzo 2.39 12:25 05:11 11.55 ir
21/12/16 Kronvalda parks. #14 Didzo 8.58 58:04 06:46 8.87 ir
20/12/16 Atjaunojos tumsā. Bāka rādīja ceļu. Didzo 9.04 56:34 06:15 9.59 ir
20/12/16 Nav nekā labāka. Didzo 8.07 40:33 05:01 11.94 ir
20/12/16 Uz darbu, pie bērniem. #11 Didzo 2.43 13:16 05:27 10.99 ir
76.56
16/12/16 Rīts pie jūras. Didzo 9.17 53:04 05:47 10.37 ir
15/12/16 Uz mājām. Didzo 2.13 11:43 05:30 10.91 ir
15/12/16 Uz darbu, pie bērniem. #10 Didzo 2.40 13:06 05:27 10.99 ir
14/12/16 Kronvalda parks. #13 Didzo 8.98 53:00 05:54 10.17 ir
13/12/16 Vakara lēnais. Didzo 13.04 1:22:29 06:19 9.49 ir
13/12/16 Uz mājām. Didzo 2.19 11:06 05:04 11.84 ir
13/12/16 Uz darbu, pie bērniem. #9 Didzo 2.40 12:11 05:04 11.82 ir
40.31
11/12/16 Svētdienas vakara meditācija. Didzo 14.79 1:31:04 06:09 9.74 ir
09/12/16 Piektdienas vakara koptreniņš. Didzo 12.04 1:07:49 05:37 10.65 ir
09/12/16 Jūra un zudusī pasaule. Didzo 7.61 42:00 05:31 10.87 ir
08/12/16 Uz mājām. Didzo 2.07 10:59 05:18 11.31 ir
08/12/16 Uz darbu, pie bērniem. #8 Didzo 2.41 13:31 05:36 10.70 ir
07/12/16 Kronvalda parks. #12 Didzo 6.59 45:00 06:49 8.79 ir
07/12/16 Lēnais un agrais. Didzo 5.84 35:46 06:07 9.80 ir
06/12/16 Pēc darba, gar jūru, pamatīgā vējā. Didzo 8.03 40:27 05:02 11.91 ir
06/12/16 Uz darbu, pie bērniem. #7 Didzo 2.42 12:12 05:02 11.90 ir
61.80
04/12/16 Skaists svētdienas rīts. Jūra un šoseja. Didzo 9.27 48:49 05:15 11.39 ir
03/12/16 Tumsas pasaule. Sniegs, vējš, jūra. Didzo 6.09 35:30 05:49 10.29 ir
01/12/16 Pēc darba, pa apledojušajām ielām. Didzo 5.14 27:15 05:18 11.32 ir
01/12/16 Uz darbu, pie bērniem. #6 Didzo 2.40 13:04 05:26 11.02 ir
30/11/16 Kronvalda parks. #11 Didzo 8.07 54:15 06:43 8.93 ir
29/11/16 Pēc darba. Sniegs un jūra. Žēl, ka nevarēju skriet ilgāk. Didzo 7.90 41:56 05:18 11.30 ir
29/11/16 Uz darbu, pie bērniem. #5 Didzo 2.42 13:00 05:22 11.17 ir
41.29
27/11/16 Miers un klusums. Jūra un tumsa. Didzo 7.83 46:28 05:56 10.11 ir
26/11/16 Bez nosaukuma Didzo 5.83 30:55 05:18 11.31 ir
22/11/16 Uz darbu, pie bērniem. #4 Didzo 2.42 11:19 04:40 12.83 ir
16.08
18/11/16 Ar Māru un Sintiju, pa Āgenskalnu. Didzo 9.28 1:02:48 06:46 8.87 ir
17/11/16 Uz darbu, pie bērniem. #3 Didzo 2.45 14:02 05:43 10.48 ir
16/11/16 Kronvalda parks. #10 Didzo 7.03 52:04 07:24 8.10 ir
15/11/16 Uz darbu, pie bērniem. Didzo 2.71 15:49 05:50 10.28 ir
21.47
12/11/16 Kad neiespējamais kļūst iespējams... Didzo 99.00 11:54:22 07:12 8.32 ir
11/11/16 Baltais vilks atkopjas pēc zāļu uzņemšanas. Didzo 2.74 22:17 08:07 7.38 ir
10/11/16 Uz darbu, pie bērniem. Jau labāk. Didzo 2.45 13:26 05:28 10.94 ir
09/11/16 Kronvalda parks. #9 Didzo 6.05 40:30 06:41 8.96 ir
08/11/16 Galva sāp trešo dienu pēc kārtas. Jātiek uz kājām. Didzo 1.01 07:28 07:23 8.12 ir
07/11/16 Šī būs ļoti interesanta nedēļa. Didzo 7.44 41:40 05:36 10.71 ir
118.69
06/11/16 Baltais vilks atkopjas pēc operācijās. Jūra, sniegs, putenis. Didzo 7.92 1:00:07 07:35 7.90 ir
05/11/16 Jūra tik mierīga. Pavisam lēnām. Didzo 10.10 1:03:06 06:14 9.60 ir
04/11/16 No darba uz darbu. Kājas jau sen slapjas. Didzo 12.38 1:23:46 06:45 8.87 ir
04/11/16 Sniegs pāri potītēm. Pēdējā laika smagākais. Didzo 15.61 1:36:40 06:11 9.69 ir
03/11/16 Tik ļoti negribēju skriet, ka aizskrēju līdz jūrai. Didzo 5.23 29:13 05:35 10.74 ir
02/11/16 Kronvalda parks. #8 Didzo 6.17 40:53 06:37 9.06 ir
02/11/16 Pa pirmo sniegu. Pirmais kritiens. Didzo 5.05 28:02 05:33 10.81 ir
01/11/16 Mierpilnā un skaistā vietā. Didzo 8.02 49:35 06:10 9.70 ir
70.48
29/10/16 No darba Dzintaros, uz Imantu. Didzo 17.01 1:31:51 05:23 11.11 ir
28/10/16 Nomierinos pēc transportēšanās. Prieks par kolēģēm. Didzo 2.03 12:33 06:10 9.71 ir
28/10/16 Ātrā transportēšanās. Didzo 3.72 17:05 04:35 13.07 ir
26/10/16 Kronvalda parks. #7 Didzo 5.64 35:17 06:15 9.59 ir
25/10/16 Savam priekam. Didzo 8.05 39:33 04:54 12.21 ir
36.45
22/10/16 Nepietika spēka. Didzo 7.46 39:10 05:15 11.43 ir
21/10/16 Uzvaras parks, un uz darbu. Didzo 5.35 30:20 05:40 10.58 ir
21/10/16 Intervāli stadionā. Didzo 5.00 25:54 05:10 11.58 ir
21/10/16 Cik skaista jūra. Ar balto vilku. Didzo 9.08 1:00:04 06:36 9.07 ir
19/10/16 Kronvalda parks. #6 Didzo 6.31 41:42 06:36 9.08 ir
18/10/16 Laiks dzīvot, laiks mirt. Didzo 7.46 38:26 05:09 11.65 ir
40.66
15/10/16 Meditācija. Didzo 7.40 38:05 05:08 11.66 ir
12/10/16 Kronvalda parks. #5 Didzo 3.89 25:00 06:25 9.34 ir
11.29
09/10/16 Pleci sadzīti, velk uz leju. Didzo 9.79 49:50 05:05 11.79 ir
07/10/16 Lēnais ar balto vilku. Didzo 5.48 35:24 06:27 9.29 ir
05/10/16 Kronvalda parks. #4 Didzo 4.85 29:40 06:07 9.81 ir
20.12
01/10/16 SKM Didzo 70.00 9:29:15 08:07 7.38 ir
30/09/16 Atjaunošanās skrējiens #5. Ar balto vilku. Didzo 5.12 34:27 06:43 8.92 ir
29/09/16 Visu slikto ārā no galvas. Ekipējuma pārbaude. Didzo 7.40 36:48 04:58 12.07 ir
28/09/16 Kronvalda parks. #3 Didzo 5.05 33:19 06:35 9.09 ir
27/09/16 Visskaistākais skrējiens. Cauri miglai, un saulrietā. Didzo 5.27 27:42 05:15 11.42 ir
26/09/16 Pirmais pēc atpūtas nedēļas. Didzo 7.53 37:54 05:01 11.92 ir
100.37
25/09/16 Atjaunošanās skrējiens #4 Didzo 6.73 44:31 06:36 9.07 ir
23/09/16 Atjaunošanās skrējiens #3 Didzo 10.00 1:01:03 06:06 9.83 ir
21/09/16 Kronvalda parks. #2 Didzo 5.51 39:14 07:07 8.43 ir
21/09/16 Atjaunošanās skrējiens #2 Didzo 7.49 48:23 06:27 9.29 ir
20/09/16 Atjaunošanās skrējiens #1 Didzo 8.10 53:35 06:36 9.07 ir
37.83
18/09/16 Man izdevās. Didzo 42.20 3:29:19 04:57 12.10 ir
17/09/16 Viegla pārbaude. Didzo 7.42 35:36 04:47 12.51 ir
16/09/16 Uz svariem. Didzo 2.16 10:35 04:53 12.25 ir
15/09/16 Saulains rīts ar Balto vilku. Didzo 4.81 31:38 06:34 9.12 ir
14/09/16 Kronvalda parks. #1 Didzo 4.56 28:38 06:16 9.56 ir
14/09/16 Izlūk skrējiens pa parku. Didzo 4.45 23:26 05:15 11.39 ir
14/09/16 Maza iesildīšanās pirms apļa treniņa. Didzo 3.25 17:27 05:22 11.17 ir
13/09/16 Vakara pastaiga. Skaists saulriets. Didzo 5.24 23:49 04:32 13.20 ir
74.09
11/09/16 Izskrien Rīgu, 5. posms. Labi, ka finišēju uz savām kājām. Didzo 8.77 36:48 04:11 14.30 ir
10/09/16 Ar balto vliku, pa saulaino pludmali. Didzo 5.36 31:08 05:48 10.33 ir
09/09/16 Izlieku sevi stadionā. Didzo 3.06 12:44 04:09 14.42 ir
09/09/16 Nebija viegli piecelties. Didzo 4.73 24:22 05:09 11.65 ir
08/09/16 Rīts turpinās stadionā. Intervāli. Didzo 4.01 18:02 04:29 13.34 ir
08/09/16 Cauri tumsai, gar jūru. Ar mazo gaismiņu. Didzo 5.86 29:52 05:05 11.77 ir
07/09/16 Mēģināju lēnām. Ar nelāgu incidentu. Didzo 5.72 31:03 05:25 11.05 ir
06/09/16 Caur tumsai. Didzo 7.20 35:03 04:52 12.33 ir
05/09/16 Lienu ārā. Didzo 9.22 45:24 04:55 12.19 ir
53.93
02/09/16 Un jau atkal agrais. Didzo 7.40 35:52 04:50 12.38 ir
01/09/16 Esmu atgriezies. Didzo 5.22 25:18 04:50 12.38 ir
12.62
27/08/16 BBPU 53km, 2. vieta ar basām kājām. Didzo 53.00 4:46:57 05:24 11.08 ir
25/08/16 Nedaudz aizgulējos. Produktīva diena. Didzo 6.60 30:57 04:41 12.79 ir
24/08/16 Atkārtojums. Nedaudz smagnējs. Didzo 9.04 44:37 04:56 12.16 ir
23/08/16 Produktīvas dienas sākums. Didzo 8.25 40:46 04:56 12.14 ir
76.89
21/08/16 Ļoti gribēju padzerties. Didzo 13.38 1:06:53 04:59 12.00 ir
20/08/16 Šorīt prātīgi. Didzo 7.39 34:55 04:43 12.70 ir
18/08/16 No sapulces uz Iļģuciemu. Didzo 6.25 30:17 04:50 12.38 ir
16/08/16 Kārtīgā lietū, kārtīgā vējā. Didzo 11.79 1:02:21 05:17 11.35 ir
16/08/16 Centos skriet brīvi, plaši, vieglā solī. Didzo 5.71 26:13 04:35 13.07 ir
16/08/16 Iesildos kopā ar Balto vilku. Mēs abi, pēc garākas pauzes. Didzo 5.22 28:05 05:22 11.15 ir
49.74
06/08/16 Laikam jāraksta 81km. Didzo 81.00 10:43:40 07:56 7.55 ir
03/08/16 Atgriežos pie jūras. Didzo 5.21 24:48 04:45 12.60 ir
02/08/16 Var paspēt visu. Didzo 7.50 33:37 04:28 13.39 ir
93.71
31/07/16 Svētdienas rīts stadionā. Pēc māsīcas kāzām. Didzo 8.06 35:22 04:23 13.67 ir
28/07/16 Beidzot var paskriet nedaudz lēnāk. Didzo 7.04 38:23 05:27 11.00 ir
28/07/16 Kājas vēl joprojām smagas. Didzo 5.03 21:21 04:14 14.14 ir
26/07/16 Vēl nav gana. Didzo 3.03 12:02 03:58 15.11 ir
23.16
23/07/16 Jelgavas nakts pusmaratons. Nekas neizdevās. Didzo 21.10 1:32:53 04:24 13.63 ir
21/07/16 Jutu, ka vajadzēja. Tagad atliek tikai skriet! Didzo 4.06 17:01 04:11 14.32 ir
19/07/16 Parkā, ar meitenēm. Didzo 4.76 28:07 05:54 10.16 ir
19/07/16 Atpūtas režīms. Didzo 5.12 24:02 04:41 12.78 ir
35.04
17/07/16 Svētdienas rīts stadionā. Šorīt esmu cīrulis. Didzo 3.07 12:05 03:56 15.24 ir
16/07/16 Labi izgulējies. Pēdējā nopietnā pārbaude. Didzo 12.05 52:08 04:19 13.87 ir
14/07/16 Jau sāk izdoties. Smagākais vēl ir priekšā. Didzo 7.06 30:15 04:17 14.00 ir
12/07/16 Ar meitenēm. Meitnes ik pēc 100 m skrēja paātrinājumu. Didzo 8.49 47:46 05:37 10.66 ir
12/07/16 Spēki sāk zust. Didzo 5.03 21:56 04:21 13.76 ir
11/07/16 Skumjš vakars. Skaists posms dzīvē beidzies. Didzo 3.01 12:49 04:15 14.09 ir
11/07/16 Neplānota iesildīšanās. Didzo 1.20 05:52 04:53 12.27 ir
39.91
10/07/16 Un atkal stadions. Ne tik labi kā cerēts. Didzo 4.02 17:26 04:20 13.84 ir
07/07/16 Turpinu censties. Didzo 6.09 27:44 04:33 13.18 ir
05/07/16 Labākais / ātrākais dienas sākums. Didzo 5.06 23:16 04:35 13.05 ir
15.17
02/07/16 Izskrien Rīgu, 3. posms. Didzo 10.00 45:41 04:34 13.13 ir
28/06/16 Daru savu darbu. Didzo 7.13 45:00 06:18 9.51 ir
27/06/16 Saudzīgi. Didzo 7.36 40:52 05:33 10.81 ir
24.49
25/06/16 Karstas dienas sākums. Didzo 8.08 43:54 05:25 11.04 ir
22/06/16 Īsākās nakts skrējiens. Didzo 22.71 2:31:47 06:41 8.98 ir
22/06/16 Uz darbu Jūrmalā, otrā daļa. Didzo 9.10 49:56 05:29 10.93 ir
22/06/16 Zvēram zvēra skaitlis. Didzo 6.66 35:51 05:22 11.15 ir
21/06/16 Ekskursija pa rajonu un skrējiens pēc picām. Didzo 12.01 1:04:12 05:20 11.22 ir
20/06/16 Krietni grūtāk kā vakar. Uz darbu Jūrmalā. Didzo 21.00 2:01:57 05:48 10.33 ir
79.56
19/06/16 Lielisks rīta turpinājums. Didzo 8.33 46:43 05:36 10.70 ir
19/06/16 Līdz Babītei. Cik ļoti pietrūka šādi rīti. Didzo 16.73 1:27:04 05:12 11.53 ir
25.06
12/06/16 Nu tomēr nevaru. Didzo 2.98 16:54 05:40 10.58 ir
12/06/16 Pēc skaistām puķēm. Didzo 4.42 24:02 05:26 11.03 ir
09/06/16 Ātrāk kā parasti. Didzo 7.73 46:35 06:01 9.96 ir
09/06/16 Smagi gāja. Didzo 4.90 29:22 05:59 10.01 ir
20.03
04/06/16 Izskrien Rīgu, 2. posms. Didzo 10.00 44:38 04:27 13.44 ir
02/06/16 Ar dāmām, cik vien lēni var. Didzo 6.64 53:54 08:07 7.39 ir
02/06/16 Izlūkos. Didzo 3.76 21:11 05:38 10.65 ir
01/06/16 Atpakaļ no depo. Didzo 4.17 23:25 05:36 10.68 ir
01/06/16 Uz depo. Didzo 3.68 19:06 05:11 11.56 ir
31/05/16 Ar meitenēm, pa parku. Didzo 5.99 39:08 06:31 9.18 ir
30/05/16 Pēdas jau surst. Uz svariem. Didzo 2.19 11:36 05:17 11.33 ir
36.43
29/05/16 Pilnīgs pretstats. Didzo 5.71 32:27 05:40 10.56 ir
29/05/16 Nekad vairs tā nedarīšu. Didzo 5.81 40:34 06:58 8.59 ir
27/05/16 Piektdienas basais. Intervāli ar Balto vilku. Didzo 7.32 42:02 05:44 10.45 ir
26/05/16 Vai var vēl lēnāk? Didzo 3.66 28:11 07:42 7.79 ir
22.50
22/05/16 Ar jaunpienāceju. Didzo 5.97 41:03 06:52 8.73 ir
19/05/16 Ceturtdienas lēnais Didzo 8.02 50:13 06:15 9.58 ir
17/05/16 Otrdienas lēnais Didzo 4.81 33:57 07:03 8.50 ir
18.80
15/05/16 Lattelecom Rīgas maratons Didzo 42.20 3:41:21 05:14 11.44 ir
12/05/16 Ceturtdienas klasiskais. Didzo 7.08 46:12 06:31 9.19 ir
10/05/16 Otrdienas klasiskais. Didzo 6.27 39:22 06:16 9.56 ir
55.55
08/05/16 Vilku citus uz priekšu. Didzo 10.28 1:04:02 06:13 9.63 ir
05/05/16 Nekur nebija jāsteidzas. Didzo 5.52 42:49 07:45 7.74 ir
05/05/16 Attīros. Ar balto vilku. Didzo 9.11 53:11 05:50 10.28 ir
03/05/16 Ātrs sākums, lēns noslēgums. Didzo 8.80 53:23 06:03 9.89 ir
02/05/16 Ar balto vilku un basām kājām. Didzo 8.32 49:15 05:55 10.14 ir
42.03
01/05/16 Silts svētdienas rīts. Didzo 8.00 49:12 06:09 9.76 ir
28/04/16 Tikpat zināma distance. Didzo 6.57 38:46 05:54 10.17 ir
28/04/16 Jau zināma distance. Didzo 15.02 1:25:45 05:42 10.51 ir
26/04/16 Saudzēt sevi. Didzo 5.55 33:17 05:59 10.01 ir
35.14
24/04/16 Lepns, lepns, lepns, lepns!!! Didzo 8.55 50:32 05:54 10.15 ir
24/04/16 Intervāli lietū. Didzo 6.53 35:15 05:23 11.11 ir
23/04/16 Baložu iela - Lielupe. Didzo 15.80 1:30:32 05:43 10.47 ir
21/04/16 Nedaudz ātrāk kā parasti. Didzo 6.10 40:10 06:35 9.11 ir
21/04/16 Pa ceļam puķes. Didzo 13.94 1:17:11 05:32 10.84 ir
21/04/16 Uz svaru zāli. Didzo 2.24 11:33 05:09 11.64 ir
21/04/16 Kad divi vilki satiekas. Didzo 6.02 36:33 06:04 9.88 ir
19/04/16 Lēnais pa parku. Didzo 5.26 37:30 07:07 8.42 ir
19/04/16 No mājām uz treniņu. Didzo 15.31 1:26:06 05:37 10.67 ir
19/04/16 Kā būs - tā būs. Didzo 6.00 31:55 05:19 11.28 ir
85.75
17/04/16 Ātri līdz svariem. Didzo 1.95 10:35 05:25 11.06 ir
17/04/16 Ar basām, kopā ar Balto vilku. Didzo 7.85 43:53 05:35 10.73 ir
17/04/16 Patīkams pārsteigums. Didzo 7.84 46:53 05:58 10.03 ir
17/04/16 Būšu stiprs. Didzo 12.11 1:07:30 05:34 10.76 ir
14/04/16 Ar meitenēm, pa parku. Didzo 5.46 37:32 06:52 8.73 ir
14/04/16 Mēģinu ko jaunu. Didzo 3.58 22:28 06:16 9.56 ir
12/04/16 Pa parku, ar meitenēm. Didzo 3.62 25:47 07:07 8.42 ir
12/04/16 Ar Sauli, pa parku. Didzo 6.03 34:25 05:42 10.51 ir
48.44
10/04/16 Rīta treniņš ar meitenēm. Didzo 5.27 36:12 06:52 8.73 ir
10/04/16 Rīts Āgenskalnā. Didzo 13.02 1:13:12 05:37 10.67 ir
07/04/16 Vakara lēnais kopā ar meitenēm. Didzo 5.31 40:23 07:36 7.89 ir
07/04/16 No darba uz Baložu ielu. Didzo 5.02 27:10 05:24 11.09 ir
07/04/16 Uz darbu, fiksi, fiksi. Didzo 2.63 13:56 05:17 11.33 ir
07/04/16 Ar Sauli riņkojam pa parku. Didzo 6.32 37:35 05:56 10.09 ir
05/04/16 Ar meitenēm. Didzo 3.06 20:28 06:41 8.97 ir
05/04/16 Kopā ar Sauli. Baspēdoju. Didzo 4.45 27:09 06:06 9.83 ir
04/04/16 Ar basām, basām kājiņām. Didzo 1.01 06:16 06:12 9.67 ir
46.09
02/04/16 Otro gadu pēc kārtas!!! Didzo 107.00 13:37:52 07:38 7.85 ir
28/03/16 Mājās no svariem. Didzo 2.10 10:32 05:00 11.96 ir
28/03/16 Ar Sauli un balto vilku, gar jūru. Didzo 5.03 28:36 05:41 10.55 ir
114.13
27/03/16 Ar Sauli, pa stadionu. Jāspiež pa bremzēm. Didzo 4.45 26:51 06:02 9.94 ir
27/03/16 Uz svariem. Jūtos labi. Didzo 2.23 12:33 05:37 10.66 ir
6.68
19/03/16 Didzis, Magnus un Gints skrien gar jūru. Didzo 23.45 2:20:33 05:59 10.01 ir
19/03/16 Uz svarīgo tikšanos Babītē. Didzo 21.97 2:08:23 05:50 10.27 ir
18/03/16 Uz mājām, vēl trakākā vējā. Didzo 2.16 11:53 05:30 10.91 ir
18/03/16 Uz svaru zālē, pamatīgā vējā. Didzo 2.25 12:13 05:25 11.05 ir
17/03/16 Ar tulpēm rokā, uz Baložu ielu, ēst suši. Didzo 9.19 50:11 05:27 10.99 ir
17/03/16 Uz darbu Purvciemā. Pavasarīgs laiks, piemērots skriešanai. Didzo 22.59 2:06:20 05:35 10.73 ir
14/03/16 Spēku izsīkums. Didzo 21.11 2:09:02 06:06 9.82 ir
102.72
13/03/16 Uz mājām, ar vēl mazāku līkumu. Didzo 3.02 15:59 05:17 11.34 ir
13/03/16 Uz svaru zāli, ar mazu līkumu. Didzo 5.47 28:23 05:11 11.56 ir
12/03/16 Maza ekskursija pa Āgenskalnu. Didzo 4.49 30:05 06:42 8.96 ir
12/03/16 Apgūstu jaunas teritorijas. Bija interesanti. Didzo 14.76 1:22:21 05:34 10.75 ir
09/03/16 Uz baložu ielu. Cik labi, ka galā kāds gaida. Didzo 10.57 1:03:29 06:00 9.99 ir
09/03/16 Uz darbu Purvciemā. Didzo 31.08 2:49:36 05:27 11.00 ir
69.39
29/02/16 Reizi četros gados. Didzo 3.14 17:42 05:38 10.64 ir
3.14
28/02/16 Briest jaunas idejas. Didzo 22.39 2:02:10 05:27 11.00 ir
27/02/16 No darba uz Baložu ielu. Didzo 15.74 1:28:32 05:37 10.67 ir
27/02/16 Uz darbu Jūrmalā. Didzo 21.06 2:04:14 05:53 10.17 ir
24/02/16 Ar balto vilku. Mums abiem sakrājies nogurums. Didzo 8.79 52:07 05:55 10.12 ir
23/02/16 Pretī vētrai. Didzo 9.69 57:03 05:53 10.19 ir
77.67
21/02/16 Svētdienas tumšais šosejnieks. Didzo 16.00 1:34:22 05:53 10.17 ir
20/02/16 Ar Sauli pa dubļaino šoseju. Didzo 16.04 1:35:03 05:55 10.13 ir
16/02/16 30km par 30 dienām. Cik skaisti. Didzo 30.07 2:41:54 05:23 11.14 ir
15/02/16 Ar Sauli un balto vilku. Skrienam Saules rekordu. Didzo 10.06 1:02:36 06:13 9.64 ir
72.17
14/02/16 Graizes, graizes, ai vēder graizes. Didzo 5.35 33:09 06:11 9.68 ir
13/02/16 Un uz mājām, tik caur Priedaini. Didzo 21.05 2:06:43 06:01 9.97 ir
13/02/16 Uz darbu Jūrmalā. Didzo 21.68 2:08:18 05:55 10.14 ir
11/02/16 Vēlu vakarā, ar Sauli, skrējām pretī tumsai. Didzo 8.48 49:31 05:50 10.28 ir
09/02/16 Ar balto vilku, lēnā pastaigā. Didzo 7.65 50:01 06:32 9.18 ir
64.21
07/02/16 Ļoti skaista diena un ļoti lietderīgi pavadīts laiks. Didzo 52.09 5:32:09 06:22 9.41 ir
05/02/16 Parāds nav brālis. Aptuvens mērījums. Didzo 7.65 48:01 06:16 9.56 ir
04/02/16 Ar Sauli un balto vilku. Didzo 8.01 50:31 06:18 9.51 ir
02/02/16 Lai jūra šņāc, lai plosās vētra. Milzu bangas laivas lai mētā. Didzo 13.15 1:08:51 05:14 11.46 ir
01/02/16 Cik labi atkal skriet. Pēc pirksta lūzuma, ar balto vilku. Didzo 6.01 34:56 05:48 10.32 ir
86.91
14/01/16 Ar balto vilku, mežonīgā pretvējā. Didzo 5.30 32:18 06:05 9.85 ir
12/01/16 04:26. Ielas pilnas ar sniegu. Didzo 15.01 1:28:24 05:53 10.19 ir
20.31
10/01/16 Šodien jau siltāks. Didzo 21.02 1:55:23 05:29 10.93 ir
07/01/16 Cauri dziļākajiem sniegiem. Pamats zem kājām - laime! Didzo 21.02 2:01:19 05:46 10.40 ir
05/01/16 Ar balto vilku, pa balto jūru. Didzo 17.60 1:43:21 05:52 10.22 ir
59.64
03/01/16 Viegli nebija. Didzo 15.01 1:29:22 05:57 10.08 ir
02/01/16 Aukstumā ar balto vilku un sārtvaidzi. Didzo 10.26 1:06:43 06:30 9.23 ir
01/01/16 Zombijus nesatiku. Didzo 8.13 43:55 05:24 11.11 ir
31/12/15 Atkal ķiblele ar telefonu. Didzo 16.00 1:27:00 05:26 11.03 ir
29/12/15 07:30. Jūra un šoseja. Didzo 21.02 1:57:49 05:36 10.70 ir
28/12/15 Pirmais sniegs. Pusceļā izslēdzies telefons. Izmantots noskrietā aprēķinātājs. Didzo 20.73 1:55:15 05:33 10.79 ir
91.15
27/12/15 Gada pēdējā svētdiena. Didzo 21.02 2:02:08 05:48 10.33 ir
26/12/15 05:46. Labi, ka piecēlos. Didzo 21.02 1:59:38 05:41 10.54 ir
25/12/15 Stadionā, jau bez bruņurupuča sabiedrības. Didzo 5.01 27:27 05:28 10.95 ir
25/12/15 Ar bruņurupuci, ļoti lēnām. Didzo 17.51 2:02:21 06:59 8.59 ir
24/12/15 Nav Ziemassvētku noskaņa, bet ir brīvdiena. Didzo 21.01 1:56:33 05:32 10.82 ir
22/12/15 Jābūt stipram! Didzo 21.06 1:56:54 05:33 10.81 ir
106.63
20/12/15 Gar vēja postījumiem. Didzo 21.01 1:53:46 05:24 11.08 ir
19/12/15 Tās acis spīd tumsā. Interesants rīts. Didzo 21.01 1:51:08 05:17 11.34 ir
17/12/15 Pieteicos un ar Balto vilku nosvinēju. Didzo 11.00 58:13 05:17 11.34 ir
15/12/15 Auksts un saulains. Patīkams rīts. Didzo 5.26 26:28 05:01 11.92 ir
58.28
13/12/15 Baltajam vilkam smags pārbaudījums. Didzo 15.47 1:24:51 05:29 10.94 ir
12/12/15 Pretīgs laiks, liels vējš un izslēdzies telefons. Didzo 14.92 1:20:21 05:23 11.14 ir
10/12/15 Muskuļi smeldz un pretvējš sagaida jau sākumā. Ar balto vilku. Didzo 9.40 53:07 05:39 10.62 ir
08/12/15 Ar balto vilku. Jāmēģina atgriezt tradīcijas. Didzo 5.88 34:07 05:48 10.34 ir
45.67
06/12/15 Ar orkāna elpu pakausī un mugurā. Didzo 17.00 1:27:04 05:07 11.72 ir
05/12/15 Ar balto vilku izlūkos. Jūra bango bīstami tuvu. Didzo 9.22 51:54 05:37 10.66 ir
03/12/15 Laiks rādīs. Didzo 5.57 28:39 05:08 11.66 ir
31.79
18/11/15 Lietainais un drēgnais, 18. novembris. Didzo 15.02 1:18:24 05:13 11.49 ir
17/11/15 Pludmale, takas un rajona ielas. Didzo 19.10 1:41:24 05:18 11.30 ir
34.12
14/11/15 Agrs un lietains rīts. Didzo 9.17 46:38 05:05 11.80 ir
10/11/15 Priekšā jauns izaicinājums. Galvu augšā! Didzo 13.03 1:05:19 05:00 11.97 ir
22.20
08/11/15 Balss ziņojums saņemts. Didzo 8.26 43:39 05:17 11.35 ir
05/11/15 Ar balto vilku, gar jūru. Didzo 8.11 46:49 05:46 10.39 ir
03/11/15 Tik vienkārši. Didzo 7.12 36:13 05:05 11.80 ir
23.49
27/10/15 Un tagad var kārtīgi paēst. Didzo 5.34 30:31 05:42 10.50 ir
26/10/15 19 stundu neēšanas logs. Vislabākais skrējiens. Didzo 6.61 31:44 04:48 12.50 ir
11.95
25/10/15 Divu radību armija. Didzo 7.16 40:25 05:38 10.63 ir
24/10/15 Samīcīts sākums, spēcinošas beigas. Didzo 8.14 41:10 05:03 11.86 ir
22/10/15 Atgriežos rajonā. Didzo 6.53 32:31 04:58 12.05 ir
21/10/15 Baltais vilks turējās varonīgi. Pamazām, pamazām. Didzo 5.17 30:15 05:51 10.25 ir
20/10/15 Cik labi atkal skriet. Ar balto vilku. Didzo 5.05 29:26 05:49 10.29 ir
32.05
27/09/15 Pēc hokeja, uz mājām. Didzo 2.28 12:01 05:16 11.38 ir
27/09/15 Nebija tik traki. Didzo 6.36 34:32 05:25 11.05 ir
25/09/15 Pa taisno uz mājām. Didzo 2.22 11:47 05:18 11.30 ir
25/09/15 Pa draudzīgo. Didzo 8.74 46:16 05:17 11.33 ir
24/09/15 Tā negribīgi, bet tomēr. Didzo 8.03 42:25 05:16 11.36 ir
22/09/15 Uz mājām. Didzo 2.51 14:01 05:35 10.74 ir
22/09/15 Trīs draugi. Pirmais koptreniņš! Didzo 10.12 53:51 05:19 11.28 ir
40.26
20/09/15 Sportlat Valmieras maratons 2015 Didzo 42.20 3:40:57 05:14 11.46 ir
42.20
13/09/15 Ar meičām Mežaparkā. Turēju tempu. Didzo 10.14 1:01:55 06:06 9.83 ir
13/09/15 Bolderāja, Babīte, Imanta, Mežaparks. Didzo 33.18 3:06:07 05:36 10.70 ir
12/09/15 Sestdienas rītā, lēni un mierīgi. Didzo 8.27 46:10 05:34 10.75 ir
09/09/15 Liekas, ka ir par daudz. Didzo 14.04 1:11:51 05:07 11.72 ir
08/09/15 Visu dienu mājās nenosēdēt. Didzo 13.52 1:09:42 05:09 11.64 ir
79.15
06/09/15 Kā nodzīts zirgs. Didzo 16.03 1:27:33 05:27 10.99 ir
06/09/15 Lēnām, ar balto vilku. Didzo 5.21 30:56 05:56 10.11 ir
05/09/15 Pa ūdeni un smilšpapīru. Didzo 17.45 1:39:35 05:42 10.51 ir
02/09/15 Izmēģinot kaut ko jaunu. Didzo 7.52 36:35 04:51 12.33 ir
02/09/15 Baltais vilks nokausēts. Didzo 5.13 30:09 05:52 10.21 ir
01/09/15 Lai mirstīgie slēpjas zem lietussargiem. Didzo 8.18 42:27 05:11 11.56 ir
59.52
29/08/15 3. Baltijas Baso pēdu ultramaratons Didzo 53.00 5:04:07 05:44 10.46 ir
27/08/15 Otrdienas atkārtojums. Didzo 4.39 25:14 05:44 10.44 ir
25/08/15 Mazais basais. Didzo 4.66 26:30 05:41 10.55 ir
62.05
23/08/15 Gar jūru līdz Saulkrastiem. Didzo 21.17 2:05:28 05:55 10.12 ir
23/08/15 Bātciemā, ar resno vilku. Didzo 4.18 24:52 05:56 10.09 ir
22/08/15 Izskrien Rīgu, 3. posms. Didzo 10.00 44:35 04:27 13.46 ir
18/08/15 Ar basām, spēcīgā pretvējā. Didzo 16.18 1:25:44 05:17 11.32 ir
51.53
16/08/15 Ar balto vilku, uz jūru. Didzo 4.75 26:12 05:30 10.88 ir
16/08/15 Darbs paveikts. Didzo 9.07 45:43 05:02 11.90 ir
13/08/15 Karstumā. Didzo 7.59 37:10 04:53 12.25 ir
21.41
09/08/15 Neplānots garais, ar basām. Didzo 25.55 2:33:55 06:01 9.96 ir
06/08/15 Svelme. Didzo 8.84 45:55 05:11 11.55 ir
05/08/15 Atkal jau ar basām. Didzo 9.29 53:27 05:45 10.43 ir
03/08/15 Gar jūru, ar basām. Didzo 1.13 07:03 06:14 9.62 ir
44.81
01/08/15 Tas sirdsmieru manu ārdīt sāk. Didzo 80.00 10:52:17 08:09 7.36 ir
29/07/15 Kā valdzinoša dvesma nāk. Didzo 8.17 41:21 05:03 11.85 ir
88.17
26/07/15 So spēku kas no manas zemes nāk. Didzo 12.26 1:03:21 05:10 11.61 ir
25/07/15 Es nevaru savaldīt spēku. Didzo 21.38 1:55:46 05:24 11.08 ir
24/07/15 Un kājas iestaigātos, vecos ceļus zina. Didzo 13.72 1:12:42 05:17 11.32 ir
21/07/15 Caur laikiem manas domas nemainās. Didzo 3.12 17:29 05:36 10.71 ir
20/07/15 Es vārdus debesīs kaltus dzirdu sevī. Didzo 9.00 49:14 05:28 10.97 ir
59.48
19/07/15 Es rītausmu norimušu redzu tālumā. Didzo 21.30 1:52:24 05:16 11.37 ir
17/07/15 Kam savas dzīves, laikam, nav vairs. Didzo 13.54 1:10:49 05:13 11.47 ir
16/07/15 Plēst manas dzīslas sāk. Didzo 5.26 30:39 05:49 10.30 ir
15/07/15 Līdz manām saknēm ticis kāds. Didzo 8.04 43:42 05:26 11.04 ir
14/07/15 No manas zemes stipra elpa nāk. Didzo 5.24 29:45 05:40 10.57 ir
13/07/15 Ar labām domām un nodomiem. Didzo 11.38 1:01:54 05:26 11.03 ir
64.76
12/07/15 Nedaudz pietrūkst apņēmības. Didzo 17.01 1:29:45 05:16 11.37 ir
11/07/15 Vikinga skrējiens. Didzo 10.09 54:16 05:22 11.16 ir
11/07/15 Kopā ar balto vilku. Baltais vilks nav formā. Didzo 6.33 39:50 06:17 9.53 ir
08/07/15 05:04. Atzīšos, šorīt viegli nebija. Didzo 18.59 1:49:50 05:54 10.16 ir
07/07/15 Kā vienmēr, patīkami. Didzo 16.16 1:28:10 05:27 11.00 ir
68.18
04/07/15 Pirms Aizputes. Didzo 2.29 12:56 05:38 10.62 ir
03/07/15 Vajadzēja celties agrāk. Didzo 16.08 1:29:41 05:34 10.76 ir
02/07/15 Pirms ledusskapja nešanas. Didzo 3.14 17:17 05:30 10.90 ir
01/07/15 Jebkādā stāvoklī. Didzo 3.15 18:41 05:55 10.12 ir
30/06/15 Saulainā rītā. Didzo 13.59 1:13:45 05:25 11.06 ir
29/06/15 Mierīgi un patīkami. Didzo 7.50 41:26 05:31 10.86 ir
45.75
28/06/15 Mans mīļākais maršruts. Didzo 12.29 1:02:45 05:06 11.75 ir
27/06/15 Nedaudz, nedaudz sadusmojos. Didzo 9.04 47:29 05:15 11.42 ir
26/06/15 Skriešana atgriež pie dzīvības. Sāku gatavoties?! Didzo 8.25 43:54 05:19 11.28 ir
22/06/15 Rīga - Saulkrasti. Starts 21.35. Finišs - kaut kad uz rīta pusi. Didzo 48.79 5:16:04 06:28 9.26 ir
78.37
21/06/15 RRR. Rīta rosme rajonā. Gatavojos pirmdienai. Didzo 3.15 16:45 05:19 11.28 ir
20/06/15 Agrs sestdienas rīts. Brīvdiena. Pieceļos 7:00. Didzo 8.29 43:08 05:12 11.53 ir
19/06/15 Rīta rosme Daugavgrīvā. Didzo 3.14 17:46 05:39 10.60 ir
18/06/15 Psiholoģiska un fiziska pārbaude uz Vakarbuļļu šosejas. Didzo 30.10 2:45:40 05:30 10.90 ir
17/06/15 Jauns maršruts, pa vecajiem ceļiem. Didzo 15.05 1:24:10 05:35 10.73 ir
16/06/15 Agrais Daugavgrīvas aplis. Didzo 3.17 17:58 05:40 10.59 ir
15/06/15 Jāturpina svētdien iesāktais. Didzo 8.26 42:54 05:11 11.55 ir
71.16
14/06/15 Jautrs rīts. 1000km gadā. Satiku draugus. Jauna mūzika. Didzo 9.41 50:41 05:23 11.14 ir
13/06/15 Agrs sestdienas rīts. Labs garastāvoklis visai dienai. Didzo 12.23 1:05:13 05:19 11.25 ir
12/06/15 Labs ātrums pirms darba. Ļoti laba sajūta. Didzo 9.04 49:05 05:25 11.05 ir
11/06/15 Spēcīgā pretvējā. Didzo 8.10 52:24 06:28 9.27 ir
10/06/15 Cik laba sajūta. Tik ļoti gribēju skriet vēl. Didzo 5.54 31:18 05:38 10.62 ir
09/06/15 Pirmais šonedēļ. Ar spēcīgu pretvēju. Didzo 10.02 59:55 05:58 10.03 ir
54.34
05/06/15 Kājas kā ar svinu pielietas. Didzo 5.48 35:11 06:25 9.35 ir
03/06/15 Agri un karsti. Didzo 9.33 54:34 05:50 10.26 ir
02/06/15 Sunītis beigās pamatīgi sagura. Didzo 8.75 52:09 05:57 10.07 ir
01/06/15 Ļoti priecīgs, pat ļoti, ļoti. Didzo 6.41 38:46 06:02 9.92 ir
29.97
17/05/15 LRM - ceļi nav veseli. 23km+7km soļojot. Didzo 30.00 3:30:00 07:00 8.57 ir
30.00
25/04/15 Kreisais celis vēl sāp. Didzo 8.42 47:02 05:35 10.74 ir
8.42
18/04/15 Domīgs celis un satraucošs skrējiena noslēgums. Jau atkal. Didzo 7.46 43:05 05:46 10.39 ir
17/04/15 Buksēju. Celis sāp. Didzo 5.40 33:17 06:09 9.73 ir
15/04/15 Gar jūru ar Satyricon. Didzo 6.36 38:16 06:01 9.97
14/04/15 Ceļos augšā no dubļiem. Didzo 4.83 28:31 05:54 10.16 ir
13/04/15 Vislabākā sajūta. Vēlējos skriet mūžīgi. Didzo 5.64 35:03 06:12 9.65 ir
29.69
11/04/15 Nedaudz vēl sāp. Jābūt uzmanīgam. Didzo 8.35 48:11 05:46 10.40 ir
10/04/15 Lieliska sajūta. Ceļi šoreiz nesāpēja. Didzo 4.81 28:32 05:55 10.11 ir
13.16
05/04/15 Pārbaudu veselības stāvokli. Vēl buksēju. Didzo 7.65 46:11 06:02 9.94 ir
7.65
28/03/15 Lai runā darbi. Didzo 107.00 15:31:17 08:42 6.89 ir
24/03/15 Sliktās domas - prom. Didzo 4.26 23:16 05:27 10.99 ir
23/03/15 Nedaudz nepierastā laikā. Didzo 6.31 34:15 05:25 11.05 ir
117.57
22/03/15 Ierastais skrējiens, neierastā laikā. Didzo 7.07 42:41 06:02 9.94 ir
21/03/15 Šo skrējienu atcerēšos vienmēr. Knapi paspēju. Didzo 8.92 50:35 05:40 10.58 ir
20/03/15 Ar nelielām izmaiņām. Didzo 5.74 32:58 05:44 10.45 ir
19/03/15 Ar vien tuvāk un tuvāk. Didzo 7.53 42:03 05:35 10.74 ir
18/03/15 Pa aizmirsto zemi. Didzo 7.55 47:58 06:21 9.44 ir
17/03/15 Ar smagām kājām. Didzo 7.42 43:27 05:51 10.25 ir
16/03/15 Zudusī ieleja. Didzo 8.45 53:49 06:22 9.42 ir
52.68
15/03/15 Solās būt skaista diena. Didzo 8.87 54:30 06:08 9.77 ir
14/03/15 Galvenais - ticēt. Didzo 12.34 1:09:48 05:39 10.61 ir
13/03/15 Neliela ekspedīcija ar nelielu aizķeršanos. Didzo 9.17 58:27 06:22 9.41 ir
12/03/15 Pēc grūtās vakardienas. Didzo 5.33 32:54 06:10 9.72 ir
11/03/15 Vakar - noguris, šorīt - spēka pilns. Didzo 5.46 32:17 05:54 10.15 ir
10/03/15 Saulains, tad apmācies. Didzo 10.03 1:03:45 06:21 9.44 ir
51.20
08/03/15 Beidzot saņēmos. Mans pirmais. Didzo 46.03 4:48:31 06:16 9.57 ir
07/03/15 Tik tiešām priecīgs par skrējienu. Didzo 12.41 1:09:21 05:35 10.74 ir
04/03/15 Daudz laimes dzimšanas dienā. Didzo 6.52 44:05 06:45 8.87 ir
03/03/15 24 km, par rītdienas divdesmitčetriem. Didzo 24.92 2:29:05 05:58 10.03 ir
89.88
01/03/15 Viela pārdomām, bet visā visumā - pozitīvi. Didzo 17.56 1:48:03 06:09 9.75 ir
28/02/15 Vecais, labais agrais sestdienas skrējiens. 05:29 Didzo 8.27 51:33 06:14 9.63 ir
27/02/15 Cauri miglai, pāri grūtībām. Didzo 17.33 1:49:07 06:17 9.53 ir
25/02/15 Jāspiež pa bremzēm. Jādomā. Didzo 7.09 44:19 06:15 9.60 ir
24/02/15 Turpinu domāt. Didzo 16.15 1:37:35 06:02 9.93 ir
23/02/15 Tāds domīgs skrējiens. Didzo 29.09 2:59:54 06:11 9.70 ir
95.49
22/02/15 Domāt ar galvu, domāt, domāt, domāt. Didzo 28.02 2:48:12 06:00 10.00 ir
20/02/15 Pavasaris - tik tuvu, tik tālu. Didzo 21.64 2:03:11 05:41 10.54 ir
19/02/15 Pēc ilgiem laikiem uz Vakarbuļļu šosejas. Didzo 21.29 2:01:34 05:42 10.51 ir
18/02/15 Pēc slimošanas. Sākums lēns, nobeigums - necerēti ātrs. Didzo 17.75 1:47:45 06:04 9.88 ir
88.70
12/02/15 Apļojot pa rajonu un noslēdzot stadionā. Didzo 21.26 2:02:33 05:45 10.41 ir
11/02/15 Jauni apavi, jaunas ēras sākums. Didzo 22.04 2:09:21 05:52 10.22 ir
10/02/15 Sakarsētās bumbas pavadībā. Didzo 12.68 1:20:29 06:20 9.45 ir
09/02/15 Ledus pludmale, ledus kāpas, ledus mežs. Didzo 17.02 1:53:41 06:40 8.98 ir
73.00
08/02/15 Pacilātā garastāvoklī. Spēcīgs un motivēts. Didzo 13.66 1:18:36 05:45 10.43 ir
06/02/15 Turpceļā - pretvējš, vidū - ķibele, atpakļceļā - lidoju. Didzo 16.50 1:39:28 06:01 9.95 ir
05/02/15 Ar ļoti stīvām kājām. Didzo 24.05 2:24:38 06:00 9.98 ir
04/02/15 Kamēr vēl ārā ir sals. Didzo 16.46 1:35:57 05:49 10.29 ir
03/02/15 Pēc pēdējā laika labākā miega. Didzo 16.47 1:34:17 05:43 10.48 ir
87.14
31/01/15 Sestdienas agrais. Kluss un mierīgs. Didzo 13.62 1:18:02 05:43 10.47 ir
30/01/15 Saule, vējš, sniegs un smiltis. Didzo 16.64 1:39:47 05:59 10.01 ir
29/01/15 Atklājot jaunas teritorijas. Didzo 21.22 2:05:02 05:53 10.18 ir
28/01/15 Skrienot un rāpjot. Pa apsnigušām un slidenām kāpām. Didzo 5.76 37:52 06:34 9.13
27/01/15 Dzīvošu vien tālāk. Galvu augšā. Didzo 14.81 1:28:47 05:59 10.01 ir
72.05
24/01/15 Agrais, trakais sestdienas rīts. Didzo 12.30 1:11:21 05:48 10.34
23/01/15 Ar lepnumu par savu labāko draugu. Didzo 15.02 1:29:12 05:56 10.10
22/01/15 Lēnām pa sniegu. Pēc vakardienas 2h Sambo treniņa. Didzo 14.81 1:32:44 06:15 9.58
20/01/15 Ideāls skrējiens. Daugavgrīvas pludmale - Lielupes ieteka. Pēc ceļgala traumas. Didzo 14.80 1:27:51 05:56 10.11
56.93
14/01/15 Pretsāpju līdzeklis. Didzo 7.19 39:32 05:29 10.91
13/01/15 Skrienot un slidojot. Didzo 9.07 53:42 05:55 10.13
12/01/15 Atpakaļ neskatos. Didzo 9.13 50:12 05:29 10.91
25.39
09/01/15 Atkopjoties no vemstīšanās un piespiedu podiņa apmeklējumiem. Lēni, jo lēni... Didzo 5.03 34:22 06:49 8.78
5.03
02/01/15 Speedy Gonzales Didzo 8.32 45:53 05:30 10.88
01/01/15 Pirmais skrējiens šogad. Tā tik turpināt! Didzo 4.44 26:06 05:52 10.21
31/12/14 Skrējiens pa Daugavgrīvas stadionu. Mans piektais maratons. Didzo 42.22 4:39:29 06:37 9.06
30/12/14 Jau domājot par rītdienas galveno daļu. Didzo 2.11 11:38 05:30 10.88
57.09
28/12/14 Pirms pārgājiena un upeņu balzama dzeršanas. Didzo 6.42 41:36 06:28 9.26
27/12/14 Snieg-skrējiens. Didzo 5.03 32:23 06:26 9.32
26/12/14 Pa slidenajiem ceļiem. Didzo 12.06 1:08:59 05:43 10.49
25/12/14 Galvu reibinojošajā putenī. Didzo 6.23 41:38 06:40 8.98
24/12/14 Tik ļoti priecīgs par brīvdienu. Didzo 28.67 2:58:43 06:14 9.63
23/12/14 Lēnām ar sunīti. Didzo 5.88 37:51 06:26 9.32
64.29
20/12/14 05:09, No tumsas nebaidos. Didzo 11.71 1:12:10 06:09 9.74
19/12/14 Agri cēlies, bet labi izgulējies. Didzo 6.48 39:08 06:02 9.94
17/12/14 Klusi un mierīgi. Didzo 10.04 59:48 05:57 10.07
16/12/14 Uz gaišo pusi. Indes iedarbība kļūst vājāka. Didzo 23.34 2:23:04 06:07 9.79
15/12/14 15-12-2014 Didzo 4.25 27:30 06:28 9.27
55.82
13/12/14 05:03, no orkāna nebaidos. Didzo 11.81 1:10:15 05:56 10.09
12/12/14 Domājot par grandioziem nākotnes plāniem. Didzo 21.51 2:04:52 05:48 10.34
11/12/14 Vējš ir tas, Vējš tas kas Tevi dzen... Didzo 19.07 1:46:27 05:34 10.75
10/12/14 Pa mierīgo, pārdomājot maratona notikumus. Didzo 6.90 43:58 06:22 9.42
59.29
07/12/14 4. Mispo ziemas maratons Didzo 42.20 3:49:40 05:26 11.02
04/12/14 Nebēdāt par sīkumiem. Viss ir un būs labi. Didzo 4.72 31:40 06:42 8.94
03/12/14 Skaists rīta skrējiens, kurā laikā tiek atslēgts internets. Didzo 4.98 32:25 06:30 9.22
02/12/14 Ar sunīti, atkaujoties no citiem sunīšiem, tikai lielākiem. Didzo 6.47 39:06 06:02 9.93
58.37
28/11/14 Bija plānots skriet mazāk. Didzo 29.65 2:50:33 05:45 10.43
27/11/14 Pelēkā rītā. Didzo 5.92 34:51 05:53 10.19
25/11/14 Lēnītiņām ar sunīti. Didzo 6.03 38:17 06:20 9.45
41.60
23/11/14 Cauri miglai, pa dubļiem. Didzo 32.83 3:20:36 06:06 9.82
22/11/14 Elpojot tumsu. Didzo 12.24 1:13:15 05:59 10.03
20/11/14 Kā jau ceturtdienas rītā pieklājas. Didzo 6.01 37:31 06:14 9.61
18/11/14 Par izturīgu Latviju. Didzo 35.21 3:31:20 06:00 10.00
86.29
15/11/14 Bez piepūles. Didzo 13.64 1:21:47 05:59 10.01
14/11/14 Viss būs labi. Didzo 4.81 32:32 06:45 8.87
12/11/14 Lēnām, taupot spēku. Didzo 5.25 33:19 06:20 9.45
11/11/14 Lāčplēša dienas skrējiens. Didzo 22.07 2:09:04 05:50 10.26
45.77
09/11/14 Tuvu spēku izsīkumam, bet ar lielu gribasspēku. Didzo 31.14 3:10:54 06:07 9.79
08/11/14 Bija plānots kas vairāk, bet ir labi tāpat. Didzo 11.32 1:04:31 05:41 10.53
07/11/14 Īsti nebija spēks kam vairāk. Didzo 12.22 1:13:30 06:00 9.98
06/11/14 Ne tas vieglākais skrējiens. Didzo 6.87 41:46 06:04 9.87
05/11/14 Kaut tā varētu dzīvot katru rītu. Didzo 11.77 1:06:38 05:39 10.60
04/11/14 Potīte niķojas, paniķojas un tad pierod. Didzo 6.34 36:43 05:47 10.36
03/11/14 26 h bez ēšanas, paģiras, baltās pelītes. Pāri visam, par spīti visam. Didzo 21.46 2:02:20 05:42 10.53
101.12
29/10/14 Nu nav tam Didzim galva uz pleciem... Didzo 14.89 1:25:40 05:45 10.43
27/10/14 Telefons izslēdzies, modinātājs nenoskan! Didzo 4.90 31:17 06:23 9.40
19.79
26/10/14 Beidzot arī svētdienā. Didzo 5.88 39:48 06:46 8.86
25/10/14 Galvenais ir saņemties un piecelties. Didzo 19.91 2:01:22 06:05 9.84
24/10/14 Domājot par rītdienu. Didzo 5.04 31:43 06:17 9.53
23/10/14 Nedaudz vēlāk kā parasti. Didzo 4.17 25:33 06:07 9.79
22/10/14 Turoties pretī kardinājumam pagulēt un skriet vairāk kā vajadzētu. Didzo 5.03 32:19 06:25 9.34
21/10/14 Cenšoties neforsēt. Didzo 5.68 37:29 06:35 9.09
45.71
18/10/14 Ne tik agri kā plānots, bet tomēr agri Didzo 12.67 1:16:30 06:02 9.94
17/10/14 Starp ceturtdienu un sestdienu. Didzo 5.05 31:37 06:15 9.58
16/10/14 Plānoti neplānotais skrējiens. Gremdēšanās atmiņās. Didzo 21.38 2:08:39 06:01 9.97
15/10/14 Supersuņa ir atgriezies Didzo 5.81 36:11 06:13 9.63
14/10/14 Gāž kā no spaiņiem. Didzo 10.65 1:09:20 06:30 9.22
55.56
11/10/14 Philadelphia Morning, jeb kluss sestdienas rīts. Didzo 25.28 2:45:03 06:31 9.19
10/10/14 Pamodos un bija jau gaišs, bet lietains. Sunītis paliek mājās. Didzo 4.61 26:48 05:48 10.32
09/10/14 Rīta skrējiens, vieglā lietū. Šoreiz bez sunīša. Didzo 5.34 31:22 05:52 10.21
08/10/14 Vējains rīts ar sunīti. Didzo 4.87 33:53 06:57 8.62
07/10/14 Otrdienas rīts ar sunīti. Didzo 7.49 55:00 07:20 8.17
06/10/14 Pirmdienas rīts ar sunīti, pirms sapules. Didzo 16.85 1:55:00 06:49 8.79
64.44
18/05/14 Nordea Rīgas maratons 2014. Didzo 42.20 4:07:56 05:52 10.21
19/05/13 Nordea Rīgas maratons 2013. Didzo 42.20 3:57:24 05:37 10.66
20/05/12 Nordea Rīgas maratons 2012. Didzo 42.20 3:57:26 05:37 10.66
21/05/11 Nordea Rīgas maratons 2011. Didzo 21.09 1:40:33 04:46 12.58
23/05/10 Nordea Rīgas maratons 2010 Didzo 21.09 1:50:23 05:14 11.46
168.77